Time;durP1;ratioP1;P1;durP2;ratioP2;P2;SDS_P1;SDS_P2;PMS_P1;PMS_P2;Temp;Humidity;BMP_temperature;BMP_pressure;BME280_temperature;BME280_humidity;BME280_pressure;Samples;Min_cycle;Max_cycle;Signal;HPM_P1;HPM_P2
2023/11/05 00:01:23;;;;;;;0.30;0.20;;;;;;;13.01;93.85;96475.19;5032963;28;21039;-49
2023/11/05 00:03:50;;;;;;;0.30;0.20;;;;;;;12.84;94.36;96473.38;5030290;28;20447;-51
2023/11/05 00:06:17;;;;;;;0.30;0.20;;;;;;;12.92;94.33;96464.63;5032230;28;20451;-49
2023/11/05 00:08:43;;;;;;;0.30;0.20;;;;;;;12.84;94.17;96451.22;5032909;28;20941;-49
2023/11/05 00:11:09;;;;;;;0.30;0.20;;;;;;;13.02;93.71;96441.41;5032815;28;20452;-49
2023/11/05 00:13:36;;;;;;;0.30;0.20;;;;;;;13.04;93.46;96448.25;5032978;28;20451;-48
2023/11/05 00:16:03;;;;;;;0.30;0.20;;;;;;;12.86;94.09;96435.91;5031938;28;20872;-48
2023/11/05 00:18:29;;;;;;;0.30;0.20;;;;;;;12.84;94.89;96433.41;5032457;28;20487;-49
2023/11/05 00:20:57;;;;;;;0.30;0.20;;;;;;;12.84;94.28;96430.72;5032976;28;20455;-49
2023/11/05 00:23:24;;;;;;;0.30;0.20;;;;;;;12.98;93.77;96430.19;5032851;28;20448;-49
2023/11/05 00:25:52;;;;;;;0.30;0.20;;;;;;;12.96;93.57;96434.00;5032536;28;20471;-49
2023/11/05 00:28:18;;;;;;;0.30;0.20;;;;;;;12.91;93.63;96426.47;5032615;28;20535;-49
2023/11/05 00:30:44;;;;;;;0.30;0.20;;;;;;;12.81;93.87;96428.38;5019340;28;20434;-49
2023/11/05 00:33:11;;;;;;;0.30;0.20;;;;;;;12.85;93.74;96416.41;5032381;28;20451;-49
2023/11/05 00:35:38;;;;;;;0.30;0.20;;;;;;;12.84;94.25;96414.75;5029716;28;20480;-50
2023/11/05 00:38:04;;;;;;;0.30;0.20;;;;;;;12.85;94.72;96407.59;5032373;28;20570;-49
2023/11/05 00:40:31;;;;;;;0.30;0.20;;;;;;;12.87;95.20;96401.09;5012734;28;20457;-50
2023/11/05 00:42:57;;;;;;;0.30;0.20;;;;;;;12.92;94.43;96411.31;5025857;28;20478;-49
2023/11/05 00:45:24;;;;;;;0.30;0.20;;;;;;;12.75;96.20;96407.69;5019080;28;20449;-50
2023/11/05 00:47:50;;;;;;;0.30;0.20;;;;;;;12.82;95.65;96410.56;5032298;28;20542;-50
2023/11/05 00:50:16;;;;;;;0.30;0.20;;;;;;;12.79;96.28;96403.72;5032008;28;20950;-47
2023/11/05 00:52:43;;;;;;;0.30;0.20;;;;;;;12.96;96.09;96394.03;5032334;28;20451;-49
2023/11/05 00:55:09;;;;;;;0.30;0.20;;;;;;;12.80;96.65;96393.91;5032219;28;20470;-48
2023/11/05 00:57:36;;;;;;;0.30;0.20;;;;;;;12.72;96.73;96395.47;5032103;28;20479;-49
2023/11/05 01:00:03;;;;;;;0.30;0.20;;;;;;;12.82;97.39;96389.25;5032220;28;20483;-49
2023/11/05 01:02:43;;;;;;;0.30;0.20;;;;;;;12.66;97.23;96390.78;5032415;28;20506;-48
2023/11/05 01:05:09;;;;;;;0.30;0.20;;;;;;;12.83;96.34;96382.91;5027900;28;20573;-49
2023/11/05 01:07:36;;;;;;;0.30;0.20;;;;;;;12.72;97.14;96376.84;5032071;28;20453;-49
2023/11/05 01:10:02;;;;;;;0.30;0.20;;;;;;;12.62;97.98;96370.78;5032284;28;20931;-49
2023/11/05 01:12:29;;;;;;;0.30;0.20;;;;;;;12.39;98.64;96378.38;5031842;28;21283;-48
2023/11/05 01:14:55;;;;;;;0.30;0.20;;;;;;;12.43;98.93;96374.41;5031123;28;20574;-49
2023/11/05 01:17:23;;;;;;;0.30;0.20;;;;;;;12.46;98.23;96365.28;5031939;28;20451;-49
2023/11/05 01:19:49;;;;;;;0.30;0.20;;;;;;;12.50;98.92;96372.00;5031724;28;20574;-49
2023/11/05 01:22:15;;;;;;;0.30;0.20;;;;;;;12.43;99.07;96350.44;5032133;28;20538;-49
2023/11/05 01:24:42;;;;;;;0.30;0.20;;;;;;;11.99;100.00;96338.84;5031796;28;20981;-49
2023/11/05 01:27:08;;;;;;;0.30;0.20;;;;;;;11.92;100.00;96342.25;5031821;28;20458;-49
2023/11/05 01:29:35;;;;;;;0.30;0.20;;;;;;;11.78;100.00;96343.56;5031607;28;20476;-49
2023/11/05 01:32:02;;;;;;;0.30;0.20;;;;;;;11.65;100.00;96329.78;5031575;28;20456;-50
2023/11/05 01:34:28;;;;;;;0.30;0.20;;;;;;;11.69;100.00;96324.03;5024236;28;21226;-49
2023/11/05 01:36:55;;;;;;;0.30;0.20;;;;;;;11.46;100.00;96318.25;5028959;28;20460;-49
2023/11/05 01:39:21;;;;;;;0.30;0.20;;;;;;;11.72;100.00;96312.25;5031568;28;20491;-50
2023/11/05 01:41:48;;;;;;;0.30;0.20;;;;;;;11.56;100.00;96297.78;5031453;28;20898;-49
2023/11/05 01:44:14;;;;;;;3.03;1.90;;;;;;;11.61;100.00;96302.63;5031789;28;20566;-50
2023/11/05 01:46:41;;;;;;;0.30;0.20;;;;;;;11.64;100.00;96306.81;5031728;28;20454;-49
2023/11/05 01:49:07;;;;;;;0.30;0.20;;;;;;;11.68;100.00;96282.44;5031690;28;20454;-49
2023/11/05 01:51:36;;;;;;;0.30;0.20;;;;;;;11.51;100.00;96280.56;5031652;28;20455;-49
2023/11/05 01:54:03;;;;;;;0.30;0.20;;;;;;;11.51;100.00;96270.81;5031280;28;20453;-49
2023/11/05 01:56:31;;;;;;;0.30;0.20;;;;;;;11.66;100.00;96281.78;5031630;28;20535;-49
2023/11/05 01:58:59;;;;;;;0.30;0.20;;;;;;;11.93;100.00;96275.59;5031852;28;20497;-49
2023/11/05 02:01:26;;;;;;;0.30;0.20;;;;;;;11.87;100.00;96276.19;5031477;28;20527;-49
2023/11/05 02:03:53;;;;;;;0.30;0.20;;;;;;;11.95;100.00;96275.44;5028773;28;20475;-54
2023/11/05 02:06:19;;;;;;;0.30;0.20;;;;;;;12.04;100.00;96280.69;5030278;28;20447;-49
2023/11/05 02:08:46;;;;;;;0.30;0.20;;;;;;;12.14;100.00;96276.13;5031347;28;20892;-49
2023/11/05 02:11:13;;;;;;;0.30;0.20;;;;;;;12.21;100.00;96271.03;5031562;28;20456;-50
2023/11/05 02:13:44;;;;;;;0.30;0.20;;;;;;;12.21;100.00;96268.38;5031326;28;20447;-49
2023/11/05 02:16:11;;;;;;;0.30;0.20;;;;;;;12.27;100.00;96280.22;5018607;28;20447;-49
2023/11/05 02:18:37;;;;;;;0.30;0.20;;;;;;;12.30;99.30;96275.41;5030951;28;20967;-50
2023/11/05 02:21:05;;;;;;;0.30;0.20;;;;;;;12.33;99.53;96272.44;5031332;28;20455;-49
2023/11/05 02:23:32;;;;;;;0.30;0.20;;;;;;;12.40;99.30;96262.88;5031432;28;20459;-49
2023/11/05 02:25:58;;;;;;;0.30;0.20;;;;;;;12.20;99.13;96264.03;5032452;28;20468;-49
2023/11/05 02:28:25;;;;;;;0.30;0.20;;;;;;;12.27;99.42;96269.56;5034569;28;20448;-50
2023/11/05 02:30:54;;;;;;;0.30;0.20;;;;;;;12.41;99.25;96271.69;5034833;28;20516;-49
2023/11/05 02:33:22;;;;;;;0.30;0.20;;;;;;;12.27;99.66;96264.25;5034734;28;20550;-49
2023/11/05 02:35:48;;;;;;;2.50;2.40;;;;;;;12.27;99.16;96258.94;5024408;28;20487;-49
2023/11/05 02:38:15;;;;;;;0.30;0.20;;;;;;;12.28;99.82;96255.28;5034460;28;20462;-49
2023/11/05 02:40:41;;;;;;;0.30;0.20;;;;;;;12.27;99.20;96253.59;5034691;28;20963;-49
2023/11/05 02:43:08;;;;;;;0.30;0.20;;;;;;;12.37;98.94;96249.88;5034735;28;20459;-49
2023/11/05 02:45:34;;;;;;;0.30;0.20;;;;;;;12.44;98.23;96242.91;5034580;28;20476;-49
2023/11/05 02:48:00;;;;;;;0.30;0.20;;;;;;;12.46;98.12;96261.41;5034599;28;20448;-49
2023/11/05 02:50:27;;;;;;;0.30;0.20;;;;;;;12.61;97.78;96253.69;5042771;22;20451;-76
2023/11/05 02:52:53;;;;;;;0.30;0.20;;;;;;;12.64;97.06;96261.38;5020522;28;20568;-76
2023/11/05 02:55:20;;;;;;;0.30;0.20;;;;;;;12.57;96.75;96250.50;5034833;28;20554;-76
2023/11/05 02:57:46;;;;;;;0.30;0.20;;;;;;;12.65;96.11;96252.41;5017156;28;20455;-76
2023/11/05 03:00:14;;;;;;;0.30;0.20;;;;;;;12.69;96.55;96264.41;5035012;28;20499;-76
2023/11/05 03:02:40;;;;;;;0.30;0.20;;;;;;;12.60;96.92;96265.31;5016830;28;20530;-76
2023/11/05 03:05:07;;;;;;;0.30;0.20;;;;;;;12.51;97.52;96259.13;5031366;28;20454;-76
2023/11/05 03:07:34;;;;;;;0.30;0.20;;;;;;;12.61;97.73;96254.53;5001179;28;20467;-76
2023/11/05 03:10:00;;;;;;;0.30;0.20;;;;;;;12.51;97.99;96253.78;5025000;28;20864;-76
2023/11/05 03:12:27;;;;;;;0.30;0.20;;;;;;;12.48;97.78;96243.47;5017517;28;20470;-77
2023/11/05 03:14:53;;;;;;;0.30;0.20;;;;;;;12.51;98.60;96250.28;5035014;28;20452;-76
2023/11/05 03:17:20;;;;;;;0.30;0.20;;;;;;;12.43;98.23;96254.56;5034298;28;20881;-76
2023/11/05 03:19:46;;;;;;;0.30;0.20;;;;;;;12.43;99.11;96246.56;5016810;28;20495;-76
2023/11/05 03:22:13;;;;;;;0.30;0.20;;;;;;;12.34;99.50;96249.34;5016519;28;21037;-76
2023/11/05 03:24:40;;;;;;;0.30;0.20;;;;;;;12.28;100.00;96240.13;5034698;28;20452;-76
2023/11/05 03:27:07;;;;;;;0.30;0.20;;;;;;;12.30;100.00;96231.97;5017108;28;20472;-77
2023/11/05 03:29:34;;;;;;;0.30;0.20;;;;;;;12.46;100.00;96224.94;5024152;28;20431;-76
2023/11/05 03:32:00;;;;;;;0.30;0.20;;;;;;;12.38;100.00;96227.56;5000659;28;20938;-76
2023/11/05 03:34:26;;;;;;;0.30;0.20;;;;;;;12.40;100.00;96222.09;5027429;28;20455;-76
2023/11/05 03:36:53;;;;;;;0.30;0.20;;;;;;;12.54;100.00;96216.19;5026195;28;20448;-76
2023/11/05 03:39:19;;;;;;;0.30;0.20;;;;;;;12.35;100.00;96209.25;5015902;28;20465;-76
2023/11/05 03:41:46;;;;;;;0.30;0.20;;;;;;;12.42;100.00;96202.28;5015964;28;20496;-77
2023/11/05 03:44:12;;;;;;;0.30;0.20;;;;;;;12.32;100.00;96196.22;5015796;28;20452;-77
2023/11/05 03:46:40;;;;;;;0.30;0.20;;;;;;;12.31;100.00;96191.06;5033562;28;20451;-77
2023/11/05 03:49:07;;;;;;;0.30;0.20;;;;;;;12.43;100.00;96192.47;5033472;28;20542;-77
2023/11/05 03:51:34;;;;;;;0.30;0.20;;;;;;;12.37;100.00;96191.28;5002664;28;20917;-77
2023/11/05 03:54:00;;;;;;;0.30;0.20;;;;;;;12.27;100.00;96190.53;5033780;28;20441;-76
2023/11/05 03:56:27;;;;;;;0.30;0.20;;;;;;;12.34;100.00;96188.09;5016022;28;20448;-77
2023/11/05 03:58:53;;;;;;;0.30;0.20;;;;;;;12.40;100.00;96206.09;5033676;28;20491;-77
2023/11/05 04:01:20;;;;;;;0.30;0.20;;;;;;;12.44;100.00;96192.31;5032964;28;20478;-77
2023/11/05 04:03:47;;;;;;;0.30;0.20;;;;;;;12.36;100.00;96194.94;5014026;28;20486;-77
2023/11/05 04:06:16;;;;;;;0.30;0.20;;;;;;;12.20;100.00;96193.97;5031524;28;20455;-77
2023/11/05 04:08:46;;;;;;;0.30;0.20;;;;;;;12.36;100.00;96192.28;5015745;28;20469;-76
2023/11/05 04:11:13;;;;;;;0.30;0.20;;;;;;;12.55;100.00;96199.22;5033305;28;20472;-75
2023/11/05 04:13:43;;;;;;;0.30;0.20;;;;;;;12.52;100.00;96198.69;5016045;28;20462;-76
2023/11/05 04:16:09;;;;;;;0.30;0.20;;;;;;;12.25;99.67;96192.53;4990438;28;20466;-75
2023/11/05 04:18:36;;;;;;;0.30;0.20;;;;;;;12.37;99.99;96187.78;5033668;28;20448;-76
2023/11/05 04:21:03;;;;;;;0.30;0.20;;;;;;;12.41;99.96;96184.63;5032514;28;20598;-76
2023/11/05 04:23:29;;;;;;;0.30;0.20;;;;;;;12.42;100.00;96185.47;5002481;28;20539;-76
2023/11/05 04:25:55;;;;;;;0.30;0.20;;;;;;;12.33;99.68;96175.75;5033364;28;20463;-76
2023/11/05 04:28:22;;;;;;;0.30;0.20;;;;;;;12.39;100.00;96177.81;5032242;28;20539;-76
2023/11/05 04:30:48;;;;;;;0.30;0.20;;;;;;;12.24;100.00;96182.03;5002627;28;21004;-76
2023/11/05 04:33:15;;;;;;;0.30;0.20;;;;;;;12.44;100.00;96171.00;5015365;28;20457;-76
2023/11/05 04:35:42;;;;;;;0.30;0.20;;;;;;;12.60;99.34;96169.44;5015924;28;20457;-76
2023/11/05 04:38:08;;;;;;;0.30;0.20;;;;;;;12.45;99.54;96161.19;5009384;28;20456;-76
2023/11/05 04:40:35;;;;;;;0.30;0.20;;;;;;;12.43;99.49;96155.19;5032574;28;20499;-76
2023/11/05 04:43:02;;;;;;;0.30;0.20;;;;;;;12.51;98.84;96159.75;5015437;28;20467;-76
2023/11/05 04:45:30;;;;;;;0.30;0.20;;;;;;;12.55;99.24;96145.94;5032784;28;20452;-76
2023/11/05 04:47:57;;;;;;;0.30;0.20;;;;;;;12.53;98.50;96166.56;5032506;28;20454;-77
2023/11/05 04:50:23;;;;;;;0.30;0.20;;;;;;;12.44;98.51;96160.34;5006587;28;20982;-76
2023/11/05 04:52:53;;;;;;;0.30;0.20;;;;;;;12.59;98.51;96168.59;5027623;28;20452;-76
2023/11/05 04:55:20;;;;;;;0.30;0.20;;;;;;;12.43;98.05;96165.84;5014778;28;20547;-76
2023/11/05 04:57:46;;;;;;;0.30;0.20;;;;;;;12.48;98.58;96170.72;5032422;28;20430;-76
2023/11/05 05:00:13;;;;;;;0.30;0.20;;;;;;;12.62;97.59;96165.63;5032665;28;20534;-76
2023/11/05 05:02:40;;;;;;;0.30;0.20;;;;;;;12.54;97.95;96160.25;5015111;28;20440;-76
2023/11/05 05:05:07;;;;;;;0.30;0.20;;;;;;;12.38;98.11;96165.47;5011454;28;20455;-77
2023/11/05 05:07:33;;;;;;;0.30;0.20;;;;;;;12.40;99.74;96163.50;5014649;28;20530;-76
2023/11/05 05:10:00;;;;;;;0.30;0.20;;;;;;;12.57;98.65;96180.41;5032464;28;20558;-76
2023/11/05 05:12:28;;;;;;;0.30;0.20;;;;;;;12.52;98.32;96175.56;5014374;28;20452;-76
2023/11/05 05:14:54;;;;;;;0.30;0.20;;;;;;;12.58;97.78;96166.09;5032002;28;20444;-76
2023/11/05 05:17:21;;;;;;;0.30;0.20;;;;;;;12.54;98.64;96170.06;5031892;28;20542;-76
2023/11/05 05:19:48;;;;;;;0.30;0.20;;;;;;;12.54;97.96;96164.75;5031709;28;20524;-76
2023/11/05 05:22:14;;;;;;;0.30;0.20;;;;;;;12.69;98.03;96166.66;5031595;28;20456;-76
2023/11/05 05:24:41;;;;;;;0.30;0.20;;;;;;;12.67;97.89;96176.63;5014410;28;20455;-76
2023/11/05 05:27:07;;;;;;;0.30;0.20;;;;;;;12.51;97.80;96178.38;5031823;28;20462;-76
2023/11/05 05:29:33;;;;;;;0.30;0.20;;;;;;;12.61;97.34;96176.41;5021676;28;20452;-76
2023/11/05 05:32:00;;;;;;;0.30;0.20;;;;;;;12.50;97.28;96180.22;5028694;28;20455;-76
2023/11/05 05:34:26;;;;;;;0.30;0.20;;;;;;;12.63;96.75;96180.63;5007484;28;20492;-76
2023/11/05 05:36:53;;;;;;;0.30;0.20;;;;;;;12.78;96.16;96177.38;5006797;28;20455;-76
2023/11/05 05:39:20;;;;;;;0.30;0.20;;;;;;;12.68;96.07;96182.81;5031937;28;20534;-76
2023/11/05 05:41:46;;;;;;;0.30;0.20;;;;;;;12.84;96.08;96180.22;5031635;28;20472;-76
2023/11/05 05:44:13;;;;;;;0.30;0.20;;;;;;;12.64;95.97;96173.47;5031662;28;20926;-76
2023/11/05 05:46:41;;;;;;;0.30;0.20;;;;;;;12.61;95.88;96181.75;5032088;28;20482;-76
2023/11/05 05:49:08;;;;;;;0.30;0.20;;;;;;;12.49;96.51;96175.88;5014139;28;20462;-76
2023/11/05 05:51:34;;;;;;;0.30;0.20;;;;;;;12.54;96.96;96184.22;5013626;28;20470;-76
2023/11/05 05:54:01;;;;;;;0.30;0.20;;;;;;;12.53;96.45;96184.38;5014300;28;20517;-76
2023/11/05 05:56:28;;;;;;;0.30;0.20;;;;;;;12.66;96.20;96184.78;5014209;28;20513;-76
2023/11/05 05:58:54;;;;;;;0.67;0.67;;;;;;;12.58;96.63;96193.56;5031683;28;20456;-76
2023/11/05 06:01:21;;;;;;;0.30;0.20;;;;;;;12.70;97.10;96181.66;5015613;28;20495;-76
2023/11/05 06:03:48;;;;;;;0.30;0.20;;;;;;;12.61;96.34;96187.94;5033794;28;20426;-76
2023/11/05 06:06:15;;;;;;;0.30;0.20;;;;;;;12.57;96.06;96197.22;5020786;28;20527;-76
2023/11/05 06:08:42;;;;;;;0.30;0.20;;;;;;;12.73;95.05;96199.97;5018341;28;20547;-76
2023/11/05 06:11:08;;;;;;;0.30;0.20;;;;;;;12.60;95.61;96202.22;5018039;28;20507;-76
2023/11/05 06:13:37;;;;;;;0.30;0.20;;;;;;;12.75;94.69;96207.84;5017680;28;20480;-76
2023/11/05 06:16:04;;;;;;;0.30;0.20;;;;;;;12.67;94.88;96213.94;5017607;28;20820;-76
2023/11/05 06:18:31;;;;;;;0.30;0.20;;;;;;;12.64;95.29;96208.94;5035010;28;20451;-76
2023/11/05 06:20:59;;;;;;;0.30;0.20;;;;;;;12.64;95.13;96219.59;5034814;28;20498;-76
2023/11/05 06:23:27;;;;;;;0.30;0.20;;;;;;;12.71;95.03;96215.28;5017539;28;20455;-76
2023/11/05 06:25:54;;;;;;;0.30;0.20;;;;;;;12.87;94.81;96214.53;5035126;28;20455;-75
2023/11/05 06:28:21;;;;;;;0.30;0.20;;;;;;;12.75;94.65;96226.50;5016712;28;20455;-75
2023/11/05 06:30:49;;;;;;;0.30;0.20;;;;;;;12.79;94.25;96221.66;5022006;28;20524;-75
2023/11/05 06:33:16;;;;;;;0.30;0.20;;;;;;;12.65;94.19;96231.91;5017069;28;20968;-75
2023/11/05 06:35:43;;;;;;;0.30;0.20;;;;;;;12.64;94.85;96234.75;5024409;28;20422;-75
2023/11/05 06:38:11;;;;;;;0.30;0.20;;;;;;;12.67;94.38;96231.75;5012265;28;20422;-75
2023/11/05 06:40:38;;;;;;;0.30;0.20;;;;;;;12.82;93.59;96240.84;5016936;28;20490;-75
2023/11/05 06:43:05;;;;;;;0.30;0.20;;;;;;;12.72;94.04;96248.09;5017091;28;20448;-75
2023/11/05 06:45:32;;;;;;;0.30;0.20;;;;;;;12.81;93.82;96241.84;5017004;28;20458;-75
2023/11/05 06:48:00;;;;;;;0.30;0.20;;;;;;;12.75;94.40;96243.31;5017171;28;20953;-75
2023/11/05 06:50:27;;;;;;;0.30;0.20;;;;;;;12.75;94.24;96253.97;5034417;28;20521;-75
2023/11/05 06:52:54;;;;;;;0.30;0.20;;;;;;;12.91;94.52;96253.22;5016894;28;20909;-75
2023/11/05 06:55:22;;;;;;;0.30;0.20;;;;;;;12.86;94.44;96252.00;5017013;28;20509;-75
2023/11/05 06:57:50;;;;;;;0.30;0.20;;;;;;;12.87;93.90;96256.34;5034389;28;20462;-75
2023/11/05 07:00:20;;;;;;;0.30;0.20;;;;;;;12.94;94.33;96266.22;5016424;28;20567;-75
2023/11/05 07:02:47;;;;;;;0.30;0.20;;;;;;;12.85;95.18;96259.16;5034036;28;20433;-74
2023/11/05 07:05:15;;;;;;;0.30;0.20;;;;;;;12.99;94.67;96258.59;5031102;28;20426;-75
2023/11/05 07:07:42;;;;;;;0.30;0.20;;;;;;;12.70;94.60;96261.56;5034070;28;20429;-75
2023/11/05 07:10:10;;;;;;;0.30;0.20;;;;;;;12.82;95.15;96264.81;5034136;28;20538;-75
2023/11/05 07:12:41;;;;;;;0.30;0.20;;;;;;;12.98;94.41;96269.41;5032313;28;20926;-75
2023/11/05 07:15:10;;;;;;;0.30;0.20;;;;;;;12.93;94.34;96269.91;5033892;28;21246;-75
2023/11/05 07:17:37;;;;;;;0.30;0.20;;;;;;;12.89;94.55;96281.03;5034115;28;20461;-75
2023/11/05 07:20:06;;;;;;;0.30;0.20;;;;;;;13.00;94.63;96288.75;5034144;28;20495;-75
2023/11/05 07:22:33;;;;;;;0.30;0.20;;;;;;;13.14;94.36;96290.81;5033907;28;20471;-75
2023/11/05 07:24:59;;;;;;;0.30;0.20;;;;;;;12.79;94.86;96290.97;5033907;28;20456;-75
2023/11/05 07:27:26;;;;;;;0.30;0.20;;;;;;;12.89;94.81;96297.88;5033759;28;20533;-75
2023/11/05 07:29:52;;;;;;;0.30;0.20;;;;;;;12.88;93.60;96301.50;5003454;28;20459;-74
2023/11/05 07:32:18;;;;;;;0.30;0.20;;;;;;;13.02;94.29;96314.28;5033348;28;20495;-74
2023/11/05 07:34:45;;;;;;;0.30;0.20;;;;;;;12.93;94.28;96311.72;5006418;28;20453;-75
2023/11/05 07:37:12;;;;;;;0.30;0.20;;;;;;;12.94;94.22;96321.38;5028498;28;20449;-74
2023/11/05 07:39:39;;;;;;;0.30;0.20;;;;;;;12.91;95.03;96324.34;5020988;28;20452;-74
2023/11/05 07:42:07;;;;;;;0.30;0.20;;;;;;;13.18;94.64;96329.56;5033288;28;20494;-75
2023/11/05 07:44:34;;;;;;;0.30;0.20;;;;;;;13.04;94.79;96330.94;5033802;28;20458;-75
2023/11/05 07:47:00;;;;;;;0.30;0.20;;;;;;;12.90;94.38;96342.19;5016081;28;20602;-75
2023/11/05 07:49:27;;;;;;;0.30;0.20;;;;;;;13.00;94.45;96344.72;5033564;28;20505;-75
2023/11/05 07:51:53;;;;;;;0.30;0.20;;;;;;;12.94;94.59;96348.88;5033343;28;20487;-76
2023/11/05 07:54:20;;;;;;;0.30;0.20;;;;;;;13.07;93.88;96356.44;5016093;28;20495;-75
2023/11/05 07:56:46;;;;;;;0.30;0.20;;;;;;;13.23;93.34;96356.59;5033598;28;20478;-75
2023/11/05 07:59:13;;;;;;;0.30;0.20;;;;;;;13.26;93.40;96364.25;5033821;28;20456;-75
2023/11/05 08:01:41;;;;;;;0.30;0.20;;;;;;;13.25;92.51;96367.94;5033342;28;20930;-75
2023/11/05 08:04:07;;;;;;;0.30;0.20;;;;;;;13.22;92.91;96357.56;5030891;28;20453;-75
2023/11/05 08:06:34;;;;;;;0.30;0.20;;;;;;;13.33;91.88;96370.66;5033876;28;20460;-75
2023/11/05 08:09:00;;;;;;;0.30;0.20;;;;;;;13.38;91.57;96377.34;5020190;28;20492;-75
2023/11/05 08:11:27;;;;;;;0.30;0.20;;;;;;;13.19;91.76;96379.22;5033452;28;20438;-75
2023/11/05 08:13:53;;;;;;;0.30;0.20;;;;;;;13.33;91.47;96381.31;5033313;28;20935;-75
2023/11/05 08:16:19;;;;;;;0.30;0.20;;;;;;;13.33;91.46;96392.00;5033568;28;20455;-75
2023/11/05 08:18:46;;;;;;;0.30;0.20;;;;;;;13.45;91.85;96394.41;5015648;28;20454;-75
2023/11/05 08:21:13;;;;;;;0.30;0.20;;;;;;;13.08;92.00;96391.94;5033415;28;20863;-75
2023/11/05 08:23:39;;;;;;;0.30;0.20;;;;;;;13.27;91.28;96405.94;5014962;28;20434;-75
2023/11/05 08:26:06;;;;;;;0.30;0.20;;;;;;;13.31;91.58;96402.00;5033742;28;20480;-75
2023/11/05 08:28:32;;;;;;;0.30;0.20;;;;;;;13.30;90.76;96412.81;5013916;28;20543;-75
2023/11/05 08:30:59;;;;;;;0.30;0.20;;;;;;;13.29;91.20;96409.31;5005196;28;20478;-75
2023/11/05 08:33:25;;;;;;;0.30;0.20;;;;;;;13.33;91.37;96421.34;5033068;28;20817;-75
2023/11/05 08:35:53;;;;;;;0.30;0.20;;;;;;;13.29;91.89;96432.44;5015207;28;20536;-75
2023/11/05 08:38:20;;;;;;;0.30;0.20;;;;;;;13.37;92.04;96435.19;5025630;28;21001;-75
2023/11/05 08:40:46;;;;;;;0.30;0.20;;;;;;;13.36;91.57;96427.34;5033560;28;20491;-75
2023/11/05 08:43:13;;;;;;;0.30;0.20;;;;;;;13.33;92.22;96447.16;5034097;28;20451;-75
2023/11/05 08:45:40;;;;;;;0.30;0.20;;;;;;;13.37;92.66;96445.84;5034007;28;20456;-75
2023/11/05 08:48:15;;;;;;;0.30;0.20;;;;;;;13.27;92.98;96445.94;5033230;28;20921;-75
2023/11/05 08:50:42;;;;;;;0.30;0.20;;;;;;;13.30;94.02;96461.66;5032521;28;20491;-75
2023/11/05 08:53:08;;;;;;;0.30;0.20;;;;;;;13.22;95.03;96477.59;5033237;28;20448;-76
2023/11/05 08:55:36;;;;;;;0.30;0.20;;;;;;;13.08;96.10;96472.78;5015035;28;20424;-76
2023/11/05 08:58:03;;;;;;;0.30;0.20;;;;;;;13.10;96.87;96485.94;5032790;28;20447;-75
2023/11/05 09:00:34;;;;;;;0.30;0.20;;;;;;;12.96;97.21;96489.97;5032603;28;20496;-75
2023/11/05 09:03:01;;;;;;;0.30;0.20;;;;;;;12.93;97.85;96496.47;5015630;28;20849;-76
2023/11/05 09:05:28;;;;;;;0.30;0.20;;;;;;;12.95;99.01;96489.16;5029579;28;20433;-75
2023/11/05 09:07:55;;;;;;;0.30;0.20;;;;;;;12.91;99.07;96508.28;5034753;28;20458;-76
2023/11/05 09:10:26;;;;;;;0.30;0.20;;;;;;;12.83;100.00;96518.84;5034229;28;20464;-75
2023/11/05 09:12:53;;;;;;;0.30;0.20;;;;;;;12.79;100.00;96515.66;5034941;28;20451;-75
2023/11/05 09:15:20;;;;;;;0.30;0.20;;;;;;;12.75;100.00;96525.78;5033154;28;20466;-75
2023/11/05 09:17:46;;;;;;;0.30;0.20;;;;;;;12.78;100.00;96527.28;5032918;28;20483;-76
2023/11/05 09:20:13;;;;;;;0.30;0.20;;;;;;;12.95;100.00;96525.63;5032186;28;20471;-76
2023/11/05 09:22:41;;;;;;;0.30;0.20;;;;;;;12.88;100.00;96530.72;5016245;28;20439;-76
2023/11/05 09:25:08;;;;;;;0.30;0.20;;;;;;;13.03;100.00;96536.38;5033535;28;20456;-76
2023/11/05 09:27:36;;;;;;;0.30;0.20;;;;;;;12.98;100.00;96539.47;5017081;28;20495;-76
2023/11/05 09:30:14;;;;;;;0.30;0.20;;;;;;;12.94;100.00;96553.28;5024514;28;20472;-76
2023/11/05 09:32:42;;;;;;;0.30;0.20;;;;;;;12.89;100.00;96553.75;5037858;28;20444;-76
2023/11/05 09:35:13;;;;;;;0.30;0.20;;;;;;;12.98;100.00;96570.63;5027494;28;20460;-76
2023/11/05 09:37:41;;;;;;;0.30;0.20;;;;;;;12.89;100.00;96564.41;5015678;28;20435;-76
2023/11/05 09:40:08;;;;;;;0.30;0.20;;;;;;;12.88;100.00;96576.03;5032015;28;20521;-76
2023/11/05 09:43:04;;;;;;;0.30;0.20;;;;;;;12.82;100.00;96576.63;5014615;28;20554;-76
2023/11/05 09:45:35;;;;;;;0.30;0.20;;;;;;;12.83;100.00;96580.13;5014869;28;20481;-76
2023/11/05 09:48:04;;;;;;;0.30;0.20;;;;;;;12.98;100.00;96595.47;5014453;28;20475;-76
2023/11/05 09:50:35;;;;;;;0.30;0.20;;;;;;;13.04;100.00;96599.38;5031911;28;20479;-76
2023/11/05 09:53:05;;;;;;;0.30;0.20;;;;;;;13.05;100.00;96609.06;5014079;28;20938;-76
2023/11/05 09:55:33;;;;;;;0.30;0.20;;;;;;;13.15;100.00;96595.63;5031934;28;20455;-76
2023/11/05 09:58:01;;;;;;;0.30;0.20;;;;;;;13.18;100.00;96612.22;5014330;28;20452;-76
2023/11/05 10:00:30;;;;;;;0.30;0.20;;;;;;;13.12;100.00;96612.78;5031596;28;20529;-76
2023/11/05 10:02:58;;;;;;;0.30;0.20;;;;;;;13.19;100.00;96618.41;5031666;28;20836;-76
2023/11/05 10:05:28;;;;;;;0.30;0.20;;;;;;;13.20;100.00;96620.91;5028492;28;20872;-76
2023/11/05 10:07:55;;;;;;;0.30;0.20;;;;;;;13.23;100.00;96623.28;5031500;28;20451;-76
2023/11/05 10:10:22;;;;;;;0.30;0.20;;;;;;;13.19;100.00;96629.06;5013996;28;20502;-76
2023/11/05 10:12:49;;;;;;;0.30;0.20;;;;;;;13.26;100.00;96636.28;5034832;23;20515;-48
2023/11/05 10:15:16;;;;;;;0.77;0.77;;;;;;;13.38;100.00;96644.09;5024107;28;20623;-48
2023/11/05 10:17:44;;;;;;;0.30;0.20;;;;;;;13.39;100.00;96648.44;5031506;28;20501;-48
2023/11/05 10:20:11;;;;;;;0.30;0.20;;;;;;;13.47;100.00;96648.53;5031081;28;20426;-49
2023/11/05 10:22:43;;;;;;;0.30;0.20;;;;;;;13.63;100.00;96656.69;5017863;28;20495;-48
2023/11/05 10:25:30;;;;;;;0.30;0.20;;;;;;;13.66;100.00;96661.72;5031155;28;20451;-48
2023/11/05 10:27:57;;;;;;;0.30;0.20;;;;;;;13.81;100.00;96665.50;5031388;28;20471;-49
2023/11/05 10:30:26;;;;;;;0.30;0.20;;;;;;;13.79;100.00;96666.66;5030828;28;20447;-49
2023/11/05 10:32:53;;;;;;;0.30;0.20;;;;;;;13.77;100.00;96672.16;5030942;28;20451;-48
2023/11/05 10:35:21;;;;;;;0.30;0.20;;;;;;;13.97;100.00;96678.16;5020819;28;20550;-48
2023/11/05 10:37:49;;;;;;;0.30;0.20;;;;;;;13.97;100.00;96683.50;5030904;28;20459;-48
2023/11/05 10:40:17;;;;;;;0.30;0.20;;;;;;;14.13;100.00;96681.00;5031142;28;20455;-48
2023/11/05 10:42:45;;;;;;;0.30;0.20;;;;;;;14.06;99.85;96684.41;5030725;28;20526;-48
2023/11/05 10:45:13;;;;;;;0.30;0.20;;;;;;;13.93;99.47;96688.31;5030748;28;20448;-47
2023/11/05 10:47:39;;;;;;;0.30;0.20;;;;;;;13.98;99.89;96703.03;5033182;28;20455;-47
2023/11/05 10:50:12;;;;;;;0.30;0.20;;;;;;;14.16;99.47;96696.69;5033906;28;20907;-47
2023/11/05 10:52:41;;;;;;;0.30;0.20;;;;;;;14.18;98.06;96705.41;5033914;28;20988;-48
2023/11/05 10:55:13;;;;;;;0.30;0.20;;;;;;;14.06;97.95;96708.47;5033112;28;20426;-47
2023/11/05 10:57:40;;;;;;;0.30;0.20;;;;;;;14.03;98.58;96712.28;5032221;28;20460;-48
2023/11/05 11:00:16;;;;;;;0.30;0.20;;;;;;;14.03;98.77;96722.97;5032767;28;20882;-49
2023/11/05 11:02:43;;;;;;;0.30;0.20;;;;;;;14.10;99.25;96734.69;5033486;28;20582;-55
2023/11/05 11:05:41;;;;;;;0.30;0.20;;;;;;;14.06;98.52;96737.84;5028575;28;20443;-49
2023/11/05 11:08:12;;;;;;;0.30;0.20;;;;;;;14.48;98.96;96741.56;5027472;28;20503;-49
2023/11/05 11:10:41;;;;;;;0.30;0.20;;;;;;;14.78;98.17;96739.41;5028869;28;20437;-48
2023/11/05 11:13:30;;;;;;;0.30;0.20;;;;;;;14.96;96.66;96747.41;5026778;28;20448;-47
2023/11/05 11:16:01;;;;;;;0.30;0.20;;;;;;;15.02;96.00;96747.59;5016326;28;20445;-47
2023/11/05 11:18:32;;;;;;;0.30;0.20;;;;;;;15.15;95.03;96770.41;5026268;28;20454;-47
2023/11/05 11:21:01;;;;;;;0.30;0.20;;;;;;;15.26;95.05;96757.59;5034233;28;20491;-48
2023/11/05 11:23:27;;;;;;;0.30;0.20;;;;;;;15.01;93.72;96769.16;5033506;28;20483;-49
2023/11/05 11:25:59;;;;;;;0.30;0.20;;;;;;;14.98;93.58;96764.97;5020929;28;21006;-48
2023/11/05 11:28:31;;;;;;;0.30;0.20;;;;;;;15.36;93.51;96761.00;5033671;28;20478;-47
2023/11/05 11:30:58;;;;;;;0.30;0.20;;;;;;;15.26;92.63;96784.34;5033370;28;20460;-48
2023/11/05 11:33:27;;;;;;;0.30;0.20;;;;;;;15.10;91.90;96782.44;5034032;28;20845;-48